JAL513 RJTT-RJCC
Flight info
| Callsign | JAL513 |
|---|---|
| Flight time | N/A |
| Altitude | 41000 |
| Route | BRUCE DCT AGRIS Y11 SAMBO Y119 OHMAR Y13 SIRAO Y139 NAVER |
| Aircraft | A359/M-VGDW/C |
Departure
| Time | N/A |
|---|---|
| Airport | Tokyo Haneda International Airport (RJTT) |
Arrival
| Time | 2026-04-30 08:41 |
|---|---|
| Airport | New Chitose Airport (RJCC) |
| Time | Latitude | Longitude | Altitude | Speed | Heading |
|---|---|---|---|---|---|
| 2026-04-30 07:36 | 35.99149 | 139.85651 | 24432 ft | 403 kts | 349° |
| 2026-04-30 07:36 | 36.01438 | 139.85967 | 24796 ft | 425 kts | 4° |
| 2026-04-30 07:36 | 36.04294 | 139.87207 | 25290 ft | 441 kts | 14° |
| 2026-04-30 07:37 | 36.07138 | 139.88690 | 25739 ft | 447 kts | 14° |
| 2026-04-30 07:37 | 36.10046 | 139.90128 | 26202 ft | 452 kts | 13° |
| 2026-04-30 07:37 | 36.12998 | 139.91541 | 26672 ft | 457 kts | 13° |
| 2026-04-30 07:37 | 36.15996 | 139.92962 | 27136 ft | 463 kts | 13° |
| 2026-04-30 07:38 | 36.19060 | 139.94242 | 27551 ft | 462 kts | 7° |
| 2026-04-30 07:38 | 36.22197 | 139.94842 | 27989 ft | 454 kts | 354° |
| 2026-04-30 07:38 | 36.25348 | 139.94909 | 28461 ft | 454 kts | 351° |
| 2026-04-30 07:38 | 36.28526 | 139.94820 | 28907 ft | 458 kts | 349° |
| 2026-04-30 07:39 | 36.31718 | 139.94674 | 29346 ft | 462 kts | 349° |
| 2026-04-30 07:39 | 36.34895 | 139.94520 | 29779 ft | 467 kts | 349° |
| 2026-04-30 07:39 | 36.38189 | 139.94377 | 30223 ft | 473 kts | 349° |
| 2026-04-30 07:39 | 36.41480 | 139.94255 | 30610 ft | 477 kts | 349° |
| 2026-04-30 07:40 | 36.44832 | 139.94178 | 31005 ft | 483 kts | 351° |
| 2026-04-30 07:40 | 36.48205 | 139.94262 | 31410 ft | 489 kts | 353° |
| 2026-04-30 07:40 | 36.51596 | 139.94451 | 31787 ft | 494 kts | 353° |
| 2026-04-30 07:40 | 36.55046 | 139.94675 | 32173 ft | 497 kts | 353° |
| 2026-04-30 07:41 | 36.58511 | 139.94891 | 32541 ft | 500 kts | 353° |
| 2026-04-30 07:41 | 36.62040 | 139.95086 | 32913 ft | 503 kts | 352° |
| 2026-04-30 07:41 | 36.65511 | 139.95255 | 33265 ft | 506 kts | 352° |
| 2026-04-30 07:41 | 36.69019 | 139.95412 | 33610 ft | 509 kts | 352° |
| 2026-04-30 07:42 | 36.72340 | 139.95553 | 33886 ft | 511 kts | 351° |
| 2026-04-30 07:42 | 36.75914 | 139.95701 | 34216 ft | 514 kts | 351° |
| 2026-04-30 07:42 | 36.79543 | 139.95852 | 34494 ft | 518 kts | 351° |
| 2026-04-30 07:42 | 36.83158 | 139.96005 | 34771 ft | 520 kts | 351° |
| 2026-04-30 07:43 | 36.86755 | 139.96212 | 35092 ft | 526 kts | 353° |
| 2026-04-30 07:43 | 36.90367 | 139.96866 | 35458 ft | 535 kts | 0° |
| 2026-04-30 07:43 | 36.94063 | 139.97792 | 35800 ft | 538 kts | 1° |
| 2026-04-30 07:43 | 36.97725 | 139.98751 | 36116 ft | 539 kts | 1° |
| 2026-04-30 07:44 | 37.01381 | 139.99718 | 36451 ft | 539 kts | 1° |
| 2026-04-30 07:44 | 37.05079 | 140.00693 | 36783 ft | 540 kts | 1° |
| 2026-04-30 07:44 | 37.08683 | 140.01644 | 37109 ft | 540 kts | 1° |
| 2026-04-30 07:44 | 37.12430 | 140.02620 | 37450 ft | 539 kts | 0° |
| 2026-04-30 07:45 | 37.16113 | 140.03574 | 37762 ft | 539 kts | 0° |
| 2026-04-30 07:45 | 37.19781 | 140.04518 | 38071 ft | 539 kts | 0° |
| 2026-04-30 07:45 | 37.23470 | 140.05465 | 38363 ft | 540 kts | 360° |
| 2026-04-30 07:45 | 37.27099 | 140.06401 | 38705 ft | 539 kts | 360° |
| 2026-04-30 07:46 | 37.30577 | 140.07302 | 39001 ft | 539 kts | 360° |
| 2026-04-30 07:46 | 37.34253 | 140.08257 | 39342 ft | 536 kts | 360° |
| 2026-04-30 07:46 | 37.37899 | 140.09210 | 39751 ft | 532 kts | 360° |
| 2026-04-30 07:46 | 37.41490 | 140.10150 | 40116 ft | 529 kts | 359° |
| 2026-04-30 07:47 | 37.45093 | 140.11091 | 40452 ft | 526 kts | 359° |
| 2026-04-30 07:47 | 37.48694 | 140.12031 | 40782 ft | 523 kts | 359° |
| 2026-04-30 07:47 | 37.52206 | 140.12947 | 41078 ft | 521 kts | 359° |
| 2026-04-30 07:47 | 37.55774 | 140.13881 | 41180 ft | 523 kts | 359° |
| 2026-04-30 07:48 | 37.59338 | 140.14814 | 41196 ft | 522 kts | 359° |
| 2026-04-30 07:48 | 37.66452 | 140.16664 | 41193 ft | 520 kts | 359° |
| 2026-04-30 07:49 | 37.73545 | 140.18512 | 41195 ft | 520 kts | 359° |
| 2026-04-30 07:49 | 37.80598 | 140.20361 | 41192 ft | 521 kts | 359° |
| 2026-04-30 07:50 | 37.87692 | 140.22226 | 41191 ft | 521 kts | 359° |
| 2026-04-30 07:50 | 37.94799 | 140.24099 | 41191 ft | 521 kts | 359° |
| 2026-04-30 07:51 | 38.01902 | 140.25975 | 41186 ft | 521 kts | 359° |
| 2026-04-30 07:51 | 38.09011 | 140.27855 | 41177 ft | 521 kts | 359° |
| 2026-04-30 07:52 | 38.16096 | 140.29733 | 41159 ft | 521 kts | 359° |
| 2026-04-30 07:52 | 38.23161 | 140.31610 | 41152 ft | 521 kts | 359° |
| 2026-04-30 07:53 | 38.30295 | 140.33509 | 41139 ft | 521 kts | 359° |
| 2026-04-30 07:53 | 38.37335 | 140.35387 | 41136 ft | 521 kts | 359° |
| 2026-04-30 07:54 | 38.44452 | 140.37412 | 41136 ft | 525 kts | 1° |
| 2026-04-30 07:54 | 38.51521 | 140.39747 | 41133 ft | 527 kts | 2° |
| 2026-04-30 07:55 | 38.57423 | 140.41719 | 41143 ft | 526 kts | 2° |
| 2026-04-30 07:55 | 38.64517 | 140.44039 | 41160 ft | 525 kts | 1° |
| 2026-04-30 07:56 | 38.71603 | 140.46327 | 41176 ft | 525 kts | 1° |
| 2026-04-30 07:56 | 38.78693 | 140.48615 | 41181 ft | 525 kts | 1° |
| 2026-04-30 07:57 | 38.85775 | 140.50907 | 41186 ft | 525 kts | 1° |
| 2026-04-30 07:57 | 38.92824 | 140.53193 | 41179 ft | 525 kts | 1° |
| 2026-04-30 07:58 | 38.99872 | 140.55488 | 41180 ft | 526 kts | 1° |
| 2026-04-30 07:58 | 39.06976 | 140.57816 | 41176 ft | 526 kts | 1° |
| 2026-04-30 07:59 | 39.14101 | 140.60151 | 41178 ft | 526 kts | 1° |
| 2026-04-30 07:59 | 39.21152 | 140.62462 | 41175 ft | 527 kts | 1° |
| 2026-04-30 08:00 | 39.31817 | 140.65975 | 41168 ft | 527 kts | 1° |
| 2026-04-30 08:00 | 39.38971 | 140.68338 | 41170 ft | 528 kts | 1° |
| 2026-04-30 08:01 | 39.46035 | 140.70678 | 41170 ft | 528 kts | 0° |
| 2026-04-30 08:01 | 39.53147 | 140.73045 | 41165 ft | 528 kts | 1° |
| 2026-04-30 08:02 | 39.63765 | 140.76573 | 41165 ft | 526 kts | 0° |
| 2026-04-30 08:03 | 39.77985 | 140.81311 | 41165 ft | 525 kts | 0° |
| 2026-04-30 08:04 | 39.85074 | 140.83685 | 41160 ft | 524 kts | 0° |
| 2026-04-30 08:04 | 39.92125 | 140.86045 | 41159 ft | 523 kts | 0° |
| 2026-04-30 08:05 | 39.99136 | 140.88407 | 41155 ft | 522 kts | 0° |
| 2026-04-30 08:05 | 40.06161 | 140.90776 | 41159 ft | 521 kts | 0° |
| 2026-04-30 08:06 | 40.13168 | 140.93141 | 41160 ft | 520 kts | 0° |
| 2026-04-30 08:06 | 40.20155 | 140.95008 | 41157 ft | 498 kts | 349° |
| 2026-04-30 08:07 | 40.26996 | 140.95409 | 41152 ft | 489 kts | 346° |
| 2026-04-30 08:07 | 40.33818 | 140.95590 | 41151 ft | 487 kts | 346° |
| 2026-04-30 08:08 | 40.40547 | 140.95765 | 41151 ft | 487 kts | 346° |
| 2026-04-30 08:08 | 40.47363 | 140.95974 | 41149 ft | 487 kts | 346° |
| 2026-04-30 08:09 | 40.54108 | 140.96197 | 41148 ft | 487 kts | 346° |
| 2026-04-30 08:09 | 40.60899 | 140.96426 | 41148 ft | 487 kts | 346° |
| 2026-04-30 08:10 | 40.67664 | 140.96651 | 41146 ft | 487 kts | 346° |
| 2026-04-30 08:10 | 40.74441 | 140.96875 | 41146 ft | 486 kts | 346° |
| 2026-04-30 08:11 | 40.81149 | 140.97108 | 41153 ft | 486 kts | 347° |
| 2026-04-30 08:11 | 40.87933 | 140.97329 | 41153 ft | 485 kts | 347° |
| 2026-04-30 08:12 | 40.94684 | 140.97551 | 41156 ft | 485 kts | 347° |
| 2026-04-30 08:12 | 41.01423 | 140.97776 | 41165 ft | 484 kts | 347° |
| 2026-04-30 08:13 | 41.08136 | 140.98002 | 41166 ft | 483 kts | 347° |
| 2026-04-30 08:13 | 41.14844 | 140.98228 | 41157 ft | 482 kts | 347° |
| 2026-04-30 08:13 | 41.17951 | 140.98336 | 40741 ft | 480 kts | 347° |
| 2026-04-30 08:14 | 41.19760 | 140.98396 | 40307 ft | 483 kts | 347° |
| 2026-04-30 08:14 | 41.23140 | 140.98501 | 39452 ft | 489 kts | 347° |
| 2026-04-30 08:14 | 41.26570 | 140.98608 | 38640 ft | 493 kts | 348° |
| 2026-04-30 08:14 | 41.30025 | 140.98957 | 37776 ft | 508 kts | 355° |
| 2026-04-30 08:15 | 41.33535 | 141.00004 | 37046 ft | 524 kts | 5° |
| 2026-04-30 08:15 | 41.37008 | 141.01552 | 36317 ft | 528 kts | 8° |
| 2026-04-30 08:15 | 41.40462 | 141.03241 | 35567 ft | 530 kts | 9° |
| 2026-04-30 08:15 | 41.43880 | 141.04971 | 34808 ft | 531 kts | 10° |
| 2026-04-30 08:16 | 41.46641 | 141.06379 | 34164 ft | 532 kts | 10° |
| 2026-04-30 08:16 | 41.50086 | 141.08136 | 33452 ft | 528 kts | 11° |
| 2026-04-30 08:16 | 41.53503 | 141.09859 | 32866 ft | 521 kts | 11° |
| 2026-04-30 08:16 | 41.56883 | 141.11547 | 32278 ft | 515 kts | 11° |
| 2026-04-30 08:17 | 41.60227 | 141.13206 | 31714 ft | 509 kts | 12° |
| 2026-04-30 08:17 | 41.63534 | 141.14842 | 31136 ft | 504 kts | 12° |
| 2026-04-30 08:17 | 41.66821 | 141.16468 | 30566 ft | 499 kts | 13° |
| 2026-04-30 08:17 | 41.70062 | 141.18076 | 29952 ft | 494 kts | 13° |
| 2026-04-30 08:18 | 41.73227 | 141.19668 | 29369 ft | 489 kts | 14° |
| 2026-04-30 08:18 | 41.76398 | 141.21277 | 28810 ft | 482 kts | 14° |
| 2026-04-30 08:18 | 41.79521 | 141.22866 | 28264 ft | 476 kts | 14° |
| 2026-04-30 08:18 | 41.82592 | 141.24430 | 27724 ft | 470 kts | 14° |
| 2026-04-30 08:19 | 41.85617 | 141.25969 | 27184 ft | 464 kts | 15° |
| 2026-04-30 08:19 | 41.87369 | 141.26860 | 26874 ft | 460 kts | 15° |
| 2026-04-30 08:19 | 41.90391 | 141.28398 | 26330 ft | 455 kts | 15° |
| 2026-04-30 08:19 | 41.93322 | 141.29895 | 25792 ft | 449 kts | 15° |
| 2026-04-30 08:20 | 41.96151 | 141.31632 | 25268 ft | 449 kts | 25° |
| 2026-04-30 08:20 | 41.98661 | 141.34135 | 24736 ft | 450 kts | 37° |
| 2026-04-30 08:20 | 42.00936 | 141.37026 | 24177 ft | 447 kts | 40° |
| 2026-04-30 08:20 | 42.03139 | 141.39887 | 23607 ft | 443 kts | 40° |
| 2026-04-30 08:21 | 42.05347 | 141.42736 | 22991 ft | 437 kts | 40° |
| 2026-04-30 08:21 | 42.07533 | 141.45552 | 22448 ft | 431 kts | 40° |
| 2026-04-30 08:21 | 42.09670 | 141.48306 | 21916 ft | 425 kts | 40° |
| 2026-04-30 08:21 | 42.11803 | 141.51045 | 21406 ft | 418 kts | 39° |
| 2026-04-30 08:22 | 42.14064 | 141.53415 | 20911 ft | 405 kts | 28° |
| 2026-04-30 08:22 | 42.16498 | 141.55258 | 20416 ft | 397 kts | 24° |
| 2026-04-30 08:22 | 42.18927 | 141.57005 | 19919 ft | 393 kts | 24° |
| 2026-04-30 08:22 | 42.21150 | 141.58631 | 19467 ft | 389 kts | 24° |
| 2026-04-30 08:23 | 42.23555 | 141.60408 | 18967 ft | 385 kts | 24° |
| 2026-04-30 08:23 | 42.25922 | 141.62163 | 18468 ft | 382 kts | 24° |
| 2026-04-30 08:23 | 42.28212 | 141.63866 | 17943 ft | 378 kts | 25° |
| 2026-04-30 08:23 | 42.30514 | 141.65581 | 17444 ft | 373 kts | 25° |
| 2026-04-30 08:24 | 42.32773 | 141.67267 | 16970 ft | 368 kts | 25° |
| 2026-04-30 08:24 | 42.34992 | 141.68925 | 16493 ft | 363 kts | 25° |
| 2026-04-30 08:24 | 42.37203 | 141.70579 | 16022 ft | 359 kts | 25° |
| 2026-04-30 08:24 | 42.39370 | 141.72201 | 15550 ft | 355 kts | 25° |
| 2026-04-30 08:25 | 42.41512 | 141.73806 | 15085 ft | 351 kts | 25° |
| 2026-04-30 08:25 | 42.43642 | 141.75403 | 14618 ft | 347 kts | 26° |
| 2026-04-30 08:25 | 42.45031 | 141.76445 | 14313 ft | 344 kts | 26° |
| 2026-04-30 08:25 | 42.47316 | 141.78161 | 13771 ft | 341 kts | 26° |
| 2026-04-30 08:26 | 42.49361 | 141.79700 | 13307 ft | 339 kts | 26° |
| 2026-04-30 08:26 | 42.51419 | 141.81258 | 12804 ft | 339 kts | 26° |
| 2026-04-30 08:26 | 42.53391 | 141.82745 | 12333 ft | 335 kts | 26° |
| 2026-04-30 08:26 | 42.55480 | 141.84315 | 11820 ft | 331 kts | 26° |
| 2026-04-30 08:27 | 42.57492 | 141.85788 | 11339 ft | 325 kts | 24° |
| 2026-04-30 08:27 | 42.59598 | 141.86695 | 10849 ft | 318 kts | 5° |
| 2026-04-30 08:27 | 42.61742 | 141.86630 | 10727 ft | 299 kts | 352° |
| 2026-04-30 08:27 | 42.63759 | 141.86372 | 10625 ft | 285 kts | 352° |
| 2026-04-30 08:28 | 42.65701 | 141.86157 | 10519 ft | 273 kts | 353° |
| 2026-04-30 08:28 | 42.67561 | 141.85968 | 10410 ft | 262 kts | 353° |
| 2026-04-30 08:28 | 42.69361 | 141.85788 | 10175 ft | 261 kts | 353° |
| 2026-04-30 08:28 | 42.71177 | 141.85608 | 9868 ft | 261 kts | 353° |
| 2026-04-30 08:29 | 42.73039 | 141.85421 | 9632 ft | 275 kts | 353° |
| 2026-04-30 08:29 | 42.74968 | 141.85230 | 9552 ft | 279 kts | 353° |
| 2026-04-30 08:29 | 42.76877 | 141.85046 | 9130 ft | 277 kts | 353° |
| 2026-04-30 08:29 | 42.78799 | 141.84862 | 8665 ft | 277 kts | 353° |
| 2026-04-30 08:30 | 42.80721 | 141.84679 | 8345 ft | 276 kts | 354° |
| 2026-04-30 08:30 | 42.82616 | 141.84408 | 7986 ft | 274 kts | 348° |
| 2026-04-30 08:30 | 42.84483 | 141.83867 | 7682 ft | 273 kts | 345° |
| 2026-04-30 08:30 | 42.86316 | 141.83264 | 7359 ft | 272 kts | 344° |
| 2026-04-30 08:31 | 42.88167 | 141.82660 | 7052 ft | 272 kts | 345° |
| 2026-04-30 08:31 | 42.90002 | 141.82072 | 6738 ft | 271 kts | 345° |
| 2026-04-30 08:31 | 42.91839 | 141.81488 | 6417 ft | 271 kts | 345° |
| 2026-04-30 08:31 | 42.93669 | 141.80906 | 6103 ft | 270 kts | 345° |
| 2026-04-30 08:32 | 42.95487 | 141.80326 | 5790 ft | 270 kts | 345° |
| 2026-04-30 08:32 | 42.97337 | 141.79738 | 5482 ft | 270 kts | 345° |
| 2026-04-30 08:32 | 42.99158 | 141.79154 | 5181 ft | 268 kts | 344° |
| 2026-04-30 08:32 | 43.00862 | 141.78257 | 4890 ft | 266 kts | 328° |
| 2026-04-30 08:33 | 43.02309 | 141.76718 | 4599 ft | 261 kts | 314° |
| 2026-04-30 08:33 | 43.03274 | 141.74757 | 4311 ft | 235 kts | 290° |
| 2026-04-30 08:33 | 43.03546 | 141.72673 | 4049 ft | 216 kts | 268° |
| 2026-04-30 08:33 | 43.03265 | 141.70737 | 3808 ft | 203 kts | 249° |
| 2026-04-30 08:34 | 43.02806 | 141.69549 | 3642 ft | 199 kts | 236° |
| 2026-04-30 08:34 | 43.01971 | 141.68128 | 3424 ft | 186 kts | 228° |
| 2026-04-30 08:34 | 43.01131 | 141.66851 | 3375 ft | 177 kts | 227° |
| 2026-04-30 08:34 | 43.00178 | 141.65799 | 3266 ft | 172 kts | 212° |
| 2026-04-30 08:35 | 42.99089 | 141.65282 | 3197 ft | 164 kts | 193° |
| 2026-04-30 08:35 | 42.97971 | 141.65259 | 3104 ft | 163 kts | 178° |
| 2026-04-30 08:35 | 42.96848 | 141.65463 | 3002 ft | 163 kts | 173° |
| 2026-04-30 08:35 | 42.95715 | 141.65696 | 2954 ft | 162 kts | 173° |
| 2026-04-30 08:36 | 42.94591 | 141.65912 | 2876 ft | 164 kts | 174° |
| 2026-04-30 08:36 | 42.93488 | 141.66106 | 2814 ft | 162 kts | 175° |
| 2026-04-30 08:36 | 42.92360 | 141.66307 | 2728 ft | 162 kts | 175° |
| 2026-04-30 08:36 | 42.91253 | 141.66515 | 2550 ft | 157 kts | 174° |
| 2026-04-30 08:37 | 42.90217 | 141.66715 | 2371 ft | 144 kts | 175° |
| 2026-04-30 08:37 | 42.89255 | 141.66895 | 2161 ft | 136 kts | 175° |
| 2026-04-30 08:37 | 42.88352 | 141.67062 | 2007 ft | 128 kts | 175° |
| 2026-04-30 08:37 | 42.87464 | 141.67226 | 1831 ft | 129 kts | 175° |
| 2026-04-30 08:38 | 42.86571 | 141.67383 | 1650 ft | 130 kts | 176° |
| 2026-04-30 08:38 | 42.85683 | 141.67546 | 1429 ft | 127 kts | 175° |
| 2026-04-30 08:38 | 42.84812 | 141.67697 | 1262 ft | 127 kts | 176° |
| 2026-04-30 08:38 | 42.83938 | 141.67860 | 1063 ft | 126 kts | 174° |
| 2026-04-30 08:39 | 42.83073 | 141.68021 | 873 ft | 124 kts | 175° |
| 2026-04-30 08:39 | 42.82280 | 141.68184 | 720 ft | 122 kts | 174° |
| 2026-04-30 08:39 | 42.81412 | 141.68363 | 618 ft | 125 kts | 174° |
| 2026-04-30 08:39 | 42.80572 | 141.68531 | 450 ft | 123 kts | 176° |
| 2026-04-30 08:40 | 42.79708 | 141.68645 | 299 ft | 125 kts | 177° |
| 2026-04-30 08:40 | 42.79234 | 141.68742 | 222 ft | 126 kts | 175° |
| 2026-04-30 08:40 | 42.78139 | 141.68956 | 68 ft | 113 kts | 175° |
| 2026-04-30 08:40 | 42.77507 | 141.69044 | 63 ft | 70 kts | 172° |
| 2026-04-30 08:41 | 42.77160 | 141.69107 | 67 ft | 38 kts | 172° |
| 2026-04-30 08:41 | 42.76913 | 141.69137 | 68 ft | 34 kts | 182° |
| 2026-04-30 08:41 | 42.76719 | 141.69065 | 69 ft | 14 kts | 204° |
| 2026-04-30 08:41 | 42.76684 | 141.69009 | 64 ft | 7 kts | 261° |
| 2026-04-30 08:42 | 42.76701 | 141.68971 | 64 ft | 5 kts | 320° |
| 2026-04-30 08:42 | 42.76740 | 141.68955 | 66 ft | 7 kts | 350° |
| 2026-04-30 08:42 | 42.76804 | 141.68943 | 68 ft | 11 kts | 353° |
| 2026-04-30 08:42 | 42.76894 | 141.68927 | 66 ft | 15 kts | 352° |
| 2026-04-30 08:43 | 42.77004 | 141.68907 | 66 ft | 19 kts | 352° |
| 2026-04-30 08:43 | 42.77142 | 141.68883 | 60 ft | 22 kts | 352° |
| 2026-04-30 08:43 | 42.77302 | 141.68855 | 62 ft | 25 kts | 352° |
| 2026-04-30 08:43 | 42.77483 | 141.68823 | 71 ft | 28 kts | 353° |
| 2026-04-30 08:44 | 42.77648 | 141.68794 | 69 ft | 25 kts | 353° |
| 2026-04-30 08:44 | 42.77827 | 141.68762 | 67 ft | 27 kts | 353° |
| 2026-04-30 08:44 | 42.78024 | 141.68728 | 66 ft | 30 kts | 353° |
| 2026-04-30 08:44 | 42.78236 | 141.68690 | 66 ft | 28 kts | 352° |
| 2026-04-30 08:45 | 42.78380 | 141.68666 | 65 ft | 20 kts | 353° |
| 2026-04-30 08:45 | 42.78526 | 141.68640 | 65 ft | 23 kts | 352° |
| 2026-04-30 08:45 | 42.78651 | 141.68609 | 67 ft | 10 kts | 327° |
| 2026-04-30 08:45 | 42.78670 | 141.68528 | 71 ft | 10 kts | 271° |
| 2026-04-30 08:46 | 42.78650 | 141.68446 | 71 ft | 10 kts | 236° |
| 2026-04-30 08:46 | 42.78649 | 141.68369 | 67 ft | 8 kts | 283° |
| 2026-04-30 08:46 | 42.78659 | 141.68310 | 69 ft | 6 kts | 283° |
| 2026-04-30 08:46 | 42.78662 | 141.68295 | 67 ft | 2 kts | 284° |
| 2026-04-30 08:47 | 42.78666 | 141.68277 | 64 ft | 0 kts | 284° |